Time;durP1;ratioP1;P1;durP2;ratioP2;P2;SDS_P1;SDS_P2;PMS_P1;PMS_P2;Temp;Humidity;BMP_temperature;BMP_pressure;BME280_temperature;BME280_humidity;BME280_pressure;Samples;Min_cycle;Max_cycle;Signal;HPM_P1;HPM_P2
2023/02/25 00:00:31;;;;;;;;;;;;;;;15.58;46.38;100262.34;4997668;28;1247;-57
2023/02/25 00:02:57;;;;;;;;;;;;;;;15.40;46.89;100261.84;4997502;28;2342;-57
2023/02/25 00:05:23;;;;;;;;;;;;;;;15.63;46.54;100254.09;4997356;28;1112;-57
2023/02/25 00:07:48;;;;;;;;;;;;;;;17.08;42.85;100241.13;4997465;28;1009;-56
2023/02/25 00:10:14;;;;;;;;;;;;;;;16.37;44.45;100248.81;4997495;28;1112;-55
2023/02/25 00:12:39;;;;;;;;;;;;;;;15.79;45.72;100240.34;4997326;28;1044;-55
2023/02/25 00:15:05;;;;;;;;;;;;;;;15.54;46.40;100233.84;4997009;28;1017;-55
2023/02/25 00:17:31;;;;;;;;;;;;;;;15.60;46.38;100238.22;4997178;28;1993;-55
2023/02/25 00:19:56;;;;;;;;;;;;;;;17.17;42.82;100235.00;4996775;28;1146;-56
2023/02/25 00:22:22;;;;;;;;;;;;;;;16.28;44.75;100230.50;4997171;28;1097;-55
2023/02/25 00:24:50;;;;;;;;;;;;;;;15.75;45.91;100229.09;4996852;28;1164;-55
2023/02/25 00:27:17;;;;;;;;;;;;;;;15.44;46.49;100222.94;4996550;28;1171;-56
2023/02/25 00:29:42;;;;;;;;;;;;;;;15.28;47.10;100228.47;4979705;28;1303;-55
2023/02/25 00:32:08;;;;;;;;;;;;;;;16.65;43.97;100218.97;4998562;28;2325;-55
2023/02/25 00:34:34;;;;;;;;;;;;;;;17.19;42.63;100230.00;4997361;28;1098;-56
2023/02/25 00:37:00;;;;;;;;;;;;;;;16.09;44.85;100222.94;4997200;28;1982;-55
2023/02/25 00:39:40;;;;;;;;;;;;;;;15.72;45.86;100219.53;4996861;28;998;-56
2023/02/25 00:42:07;;;;;;;;;;;;;;;15.48;46.42;100213.06;4995426;28;1089;-56
2023/02/25 00:44:33;;;;;;;;;;;;;;;16.62;43.88;100216.78;4996649;28;1255;-58
2023/02/25 00:46:59;;;;;;;;;;;;;;;17.34;42.20;100218.03;4996551;28;1164;-58
2023/02/25 00:49:25;;;;;;;;;;;;;;;16.24;44.53;100214.59;5011543;28;1139;-58
2023/02/25 00:51:51;;;;;;;;;;;;;;;15.79;45.63;100207.44;4996220;28;1072;-58
2023/02/25 00:54:16;;;;;;;;;;;;;;;15.57;46.35;100200.41;5011750;28;1437;-56
2023/02/25 00:56:42;;;;;;;;;;;;;;;17.12;42.80;100204.81;4996485;28;1969;-56
2023/02/25 00:59:07;;;;;;;;;;;;;;;16.62;43.80;100203.06;4996586;28;1092;-56
2023/02/25 01:01:33;;;;;;;;;;;;;;;15.91;45.55;100194.25;4996463;28;1100;-56
2023/02/25 01:03:58;;;;;;;;;;;;;;;15.64;46.11;100192.72;4995878;28;2641;-56
2023/02/25 01:06:27;;;;;;;;;;;;;;;15.41;46.84;100185.94;5011670;28;1128;-56
2023/02/25 01:08:52;;;;;;;;;;;;;;;15.30;47.08;100182.41;4996575;28;1199;-56
2023/02/25 01:11:27;;;;;;;;;;;;;;;16.75;43.65;100180.41;4996542;28;1029;-56
2023/02/25 01:13:57;;;;;;;;;;;;;;;17.10;42.54;100175.69;4996476;28;1140;-56
2023/02/25 01:16:23;;;;;;;;;;;;;;;16.18;44.93;100176.50;4996058;28;1910;-55
2023/02/25 01:18:52;;;;;;;;;;;;;;;15.76;45.74;100175.13;5011553;28;1320;-55
2023/02/25 01:21:18;;;;;;;;;;;;;;;15.50;46.37;100167.00;4996754;28;1235;-55
2023/02/25 01:23:44;;;;;;;;;;;;;;;15.36;46.84;100173.09;4996150;28;1121;-58
2023/02/25 01:26:09;;;;;;;;;;;;;;;16.97;43.33;100170.91;4996027;28;1096;-58
2023/02/25 01:28:35;;;;;;;;;;;;;;;16.73;43.27;100165.34;4995733;28;866;-57
2023/02/25 01:31:01;;;;;;;;;;;;;;;15.97;45.26;100151.97;4996298;28;1152;-57
2023/02/25 01:33:26;;;;;;;;;;;;;;;15.63;45.92;100151.88;4998153;28;2682;-57
2023/02/25 01:35:51;;;;;;;;;;;;;;;15.42;46.76;100153.88;4996139;28;1906;-57
2023/02/25 01:38:17;;;;;;;;;;;;;;;16.83;43.31;100142.44;4996518;28;1211;-57
2023/02/25 01:40:44;;;;;;;;;;;;;;;17.05;42.72;100134.53;4978674;28;1195;-58
2023/02/25 01:43:15;;;;;;;;;;;;;;;16.10;44.90;100149.69;4995992;28;1123;-59
2023/02/25 01:45:42;;;;;;;;;;;;;;;15.68;46.14;100149.94;5011280;28;1263;-57
2023/02/25 01:48:12;;;;;;;;;;;;;;;15.50;46.28;100143.19;4996185;28;1171;-57
2023/02/25 01:50:42;;;;;;;;;;;;;;;16.28;44.76;100143.50;5011212;28;1052;-57
2023/02/25 01:53:08;;;;;;;;;;;;;;;17.40;42.08;100140.75;4996183;28;922;-57
2023/02/25 01:55:34;;;;;;;;;;;;;;;16.31;44.26;100148.41;5014462;28;1983;-57
2023/02/25 01:57:59;;;;;;;;;;;;;;;15.82;45.69;100144.69;5015055;28;1132;-57
2023/02/25 02:00:27;;;;;;;;;;;;;;;15.56;46.14;100144.78;5014848;28;1327;-57
2023/02/25 02:02:52;;;;;;;;;;;;;;;15.36;46.65;100139.38;5022715;28;1842;-57
2023/02/25 02:05:17;;;;;;;;;;;;;;;16.43;44.12;100123.34;4999984;28;1056;-57
2023/02/25 02:07:43;;;;;;;;;;;;;;;17.09;42.40;100141.09;5015508;28;1568;-58
2023/02/25 02:10:09;;;;;;;;;;;;;;;16.07;44.86;100143.69;5014620;28;1587;-58
2023/02/25 02:12:35;;;;;;;;;;;;;;;15.69;45.78;100143.34;4981937;28;1141;-56
2023/02/25 02:15:01;;;;;;;;;;;;;;;15.51;46.26;100133.84;4997716;28;1104;-56
2023/02/25 02:17:41;;;;;;;;;;;;;;;15.27;46.91;100136.41;5014595;28;1906;-56
2023/02/25 02:20:14;;;;;;;;;;;;;;;16.74;43.67;100137.59;5014230;28;1282;-56
2023/02/25 02:22:39;;;;;;;;;;;;;;;16.70;43.52;100150.25;4999385;28;1057;-56
2023/02/25 02:25:05;;;;;;;;;;;;;;;15.96;45.17;100133.88;4999181;28;1089;-56
2023/02/25 02:27:35;;;;;;;;;;;;;;;15.57;46.13;100140.94;5014194;28;1394;-56
2023/02/25 02:30:06;;;;;;;;;;;;;;;15.48;46.34;100131.66;4981506;28;1009;-56
2023/02/25 02:32:32;;;;;;;;;;;;;;;17.13;42.83;100133.09;4984998;28;2398;-56
2023/02/25 02:35:08;;;;;;;;;;;;;;;16.50;43.81;100136.75;4981527;28;1176;-56
2023/02/25 02:37:52;;;;;;;;;;;;;;;15.88;45.33;100132.56;5014293;28;1922;-56
2023/02/25 02:40:21;;;;;;;;;;;;;;;15.54;46.33;100118.75;4999236;28;1112;-56
2023/02/25 02:42:49;;;;;;;;;;;;;;;15.36;46.89;100123.78;4998985;28;1120;-55
2023/02/25 02:45:14;;;;;;;;;;;;;;;15.23;47.14;100114.28;4981673;28;1124;-56
2023/02/25 02:47:41;;;;;;;;;;;;;;;16.91;43.06;100117.13;4981249;28;1288;-56
2023/02/25 02:50:08;;;;;;;;;;;;;;;16.96;42.67;100108.84;5014064;28;1004;-56
2023/02/25 02:52:34;;;;;;;;;;;;;;;16.04;44.95;100118.75;5000464;28;1093;-56
2023/02/25 02:55:21;;;;;;;;;;;;;;;15.69;45.97;100109.63;4998688;28;1072;-56
2023/02/25 02:57:49;;;;;;;;;;;;;;;15.43;46.51;100111.69;4989016;28;1910;-56
2023/02/25 03:00:18;;;;;;;;;;;;;;;16.89;43.28;100102.91;4996973;28;1124;-56
2023/02/25 03:02:51;;;;;;;;;;;;;;;16.52;43.96;100105.19;5020405;28;2195;-56
2023/02/25 03:05:18;;;;;;;;;;;;;;;15.84;45.48;100100.53;4965530;28;1167;-57
2023/02/25 03:07:46;;;;;;;;;;;;;;;15.57;46.35;100107.22;5013658;28;961;-57
2023/02/25 03:10:12;;;;;;;;;;;;;;;15.35;46.79;100102.97;5013589;28;1099;-56
2023/02/25 03:12:38;;;;;;;;;;;;;;;16.53;43.90;100105.97;4998525;28;1111;-57
2023/02/25 03:15:04;;;;;;;;;;;;;;;17.12;42.50;100100.44;5013355;28;1392;-58
2023/02/25 03:17:32;;;;;;;;;;;;;;;16.06;44.89;100091.84;5013018;28;1917;-58
2023/02/25 03:20:07;;;;;;;;;;;;;;;15.71;45.88;100097.28;4997054;28;1128;-55
2023/02/25 03:22:35;;;;;;;;;;;;;;;15.42;46.48;100093.59;5013215;28;2106;-55
2023/02/25 03:25:24;;;;;;;;;;;;;;;15.44;46.30;100096.91;4985758;28;1096;-55
2023/02/25 03:27:51;;;;;;;;;;;;;;;17.21;42.43;100094.00;4995060;28;1658;-55
2023/02/25 03:30:30;;;;;;;;;;;;;;;16.51;44.00;100097.19;4996255;28;1140;-55
2023/02/25 03:33:07;;;;;;;;;;;;;;;15.91;45.37;100101.84;4999880;28;2013;-55
2023/02/25 03:35:33;;;;;;;;;;;;;;;15.60;46.12;100097.63;5013291;28;1906;-56
2023/02/25 03:37:59;;;;;;;;;;;;;;;15.38;46.64;100101.59;4996923;28;1183;-56
2023/02/25 03:40:25;;;;;;;;;;;;;;;16.20;44.73;100092.84;4996260;28;1318;-56
2023/02/25 03:43:06;;;;;;;;;;;;;;;17.38;42.14;100087.19;4997762;28;1136;-55
2023/02/25 03:45:32;;;;;;;;;;;;;;;16.25;44.59;100089.22;4996580;28;1116;-56
2023/02/25 03:47:58;;;;;;;;;;;;;;;15.81;45.34;100087.38;4998022;28;981;-56
2023/02/25 03:50:25;;;;;;;;;;;;;;;15.57;46.12;100075.19;4980104;28;1156;-56
2023/02/25 03:52:56;;;;;;;;;;;;;;;15.44;46.42;100085.94;4995698;28;1121;-56
2023/02/25 03:55:40;;;;;;;;;;;;;;;17.04;42.68;100080.75;4997309;28;1901;-56
2023/02/25 03:58:06;;;;;;;;;;;;;;;16.78;43.00;100069.22;5013172;28;1788;-56
2023/02/25 04:00:32;;;;;;;;;;;;;;;16.02;44.87;100080.66;4980061;28;1114;-56
2023/02/25 04:02:58;;;;;;;;;;;;;;;15.66;45.66;100083.59;4980237;28;2219;-56
2023/02/25 04:05:26;;;;;;;;;;;;;;;15.51;46.18;100076.28;4997220;28;1104;-56
2023/02/25 04:07:52;;;;;;;;;;;;;;;16.57;43.75;100076.84;5012171;28;1175;-57
2023/02/25 04:10:18;;;;;;;;;;;;;;;16.90;42.79;100079.78;4980248;28;1160;-56
2023/02/25 04:12:43;;;;;;;;;;;;;;;16.00;45.24;100071.06;5012504;28;1553;-56
2023/02/25 04:15:09;;;;;;;;;;;;;;;15.70;45.76;100073.72;5012481;28;1190;-56
2023/02/25 04:17:35;;;;;;;;;;;;;;;15.46;46.43;100068.13;5011614;28;1914;-56
2023/02/25 04:20:00;;;;;;;;;;;;;;;16.35;44.32;100072.66;4996942;28;1052;-62
2023/02/25 04:22:26;;;;;;;;;;;;;;;17.30;42.01;100061.16;4997222;28;1076;-58
2023/02/25 04:24:51;;;;;;;;;;;;;;;16.22;44.54;100068.66;4997191;28;1125;-55
2023/02/25 04:27:17;;;;;;;;;;;;;;;15.78;45.46;100063.25;4997213;28;1013;-62
2023/02/25 04:29:42;;;;;;;;;;;;;;;15.55;46.22;100060.94;4997023;28;1172;-54
2023/02/25 04:32:08;;;;;;;;;;;;;;;15.51;46.19;100062.59;4998640;28;2277;-57
2023/02/25 04:34:33;;;;;;;;;;;;;;;17.10;42.61;100060.31;4998417;28;1093;-55
2023/02/25 04:37:01;;;;;;;;;;;;;;;16.55;43.56;100062.59;4996894;28;1914;-57
2023/02/25 04:39:26;;;;;;;;;;;;;;;15.89;45.15;100057.44;4996673;28;1128;-56
2023/02/25 04:41:52;;;;;;;;;;;;;;;15.62;45.80;100055.13;4996903;28;1140;-57
2023/02/25 04:44:17;;;;;;;;;;;;;;;15.42;46.39;100049.78;4996683;28;1164;-56
2023/02/25 04:46:42;;;;;;;;;;;;;;;16.74;43.52;100052.47;4996710;28;1148;-57
2023/02/25 04:49:08;;;;;;;;;;;;;;;16.56;43.69;100048.59;4996720;28;1183;-57
2023/02/25 04:51:34;;;;;;;;;;;;;;;15.88;45.36;100046.78;4996614;28;1021;-55
2023/02/25 04:53:59;;;;;;;;;;;;;;;15.57;46.10;100052.41;4996566;28;1211;-57
2023/02/25 04:56:24;;;;;;;;;;;;;;;15.41;46.34;100059.94;4996781;28;1981;-58
2023/02/25 04:58:50;;;;;;;;;;;;;;;17.03;42.67;100051.63;4996156;28;1107;-57
2023/02/25 05:01:15;;;;;;;;;;;;;;;16.89;42.95;100047.97;4995938;28;1152;-59
2023/02/25 05:03:41;;;;;;;;;;;;;;;16.06;44.62;100048.78;4996452;28;1895;-56
2023/02/25 05:06:06;;;;;;;;;;;;;;;15.74;45.53;100050.13;4996833;28;1048;-57
2023/02/25 05:08:32;;;;;;;;;;;;;;;15.53;46.18;100056.84;4996143;28;1093;-57
2023/02/25 05:10:57;;;;;;;;;;;;;;;15.39;46.34;100068.44;4996206;28;1001;-56
2023/02/25 05:13:23;;;;;;;;;;;;;;;16.04;45.06;100069.38;4996569;28;1101;-57
2023/02/25 05:15:48;;;;;;;;;;;;;;;17.36;42.11;100057.25;4995999;28;1905;-54
2023/02/25 05:18:14;;;;;;;;;;;;;;;16.42;43.99;100055.84;4996036;28;1041;-56
2023/02/25 05:20:42;;;;;;;;;;;;;;;15.87;45.27;100056.09;4996615;28;1060;-58
2023/02/25 05:23:08;;;;;;;;;;;;;;;15.61;46.07;100056.22;4996408;28;1129;-53
2023/02/25 05:25:33;;;;;;;;;;;;;;;15.44;46.25;100059.34;4996381;28;1072;-54
2023/02/25 05:27:59;;;;;;;;;;;;;;;15.21;47.04;100061.69;4996127;28;1076;-54
2023/02/25 05:30:24;;;;;;;;;;;;;;;16.75;43.64;100059.63;5000158;28;1054;-52
2023/02/25 05:32:50;;;;;;;;;;;;;;;16.98;42.48;100056.38;5003328;28;1927;-54
2023/02/25 05:35:16;;;;;;;;;;;;;;;16.01;45.11;100061.75;4999966;28;1048;-57
2023/02/25 05:37:41;;;;;;;;;;;;;;;15.71;45.53;100069.03;5000240;28;1987;-56
2023/02/25 05:40:08;;;;;;;;;;;;;;;15.64;46.05;100060.31;4999861;28;1063;-57
2023/02/25 05:42:34;;;;;;;;;;;;;;;15.33;46.77;100061.34;4999229;28;1085;-56
2023/02/25 05:44:59;;;;;;;;;;;;;;;16.65;43.66;100067.16;5000674;28;1040;-50
2023/02/25 05:47:25;;;;;;;;;;;;;;;17.16;42.24;100063.00;5000157;28;1208;-59
2023/02/25 05:49:50;;;;;;;;;;;;;;;16.08;44.67;100064.97;5000077;28;1121;-58
2023/02/25 05:52:16;;;;;;;;;;;;;;;15.75;45.69;100067.38;4999828;28;1072;-55
2023/02/25 05:54:41;;;;;;;;;;;;;;;15.55;45.93;100069.16;4999384;28;878;-58
2023/02/25 05:57:07;;;;;;;;;;;;;;;16.92;43.23;100055.63;4999796;28;1979;-66
2023/02/25 05:59:32;;;;;;;;;;;;;;;16.83;43.14;100054.59;4999062;28;2301;-60
2023/02/25 06:01:58;;;;;;;;;;;;;;;16.02;44.91;100052.38;5000331;28;1160;-63
2023/02/25 06:04:23;;;;;;;;;;;;;;;15.72;45.49;100057.81;4999991;28;1106;-61
2023/02/25 06:06:49;;;;;;;;;;;;;;;15.57;46.14;100055.16;4999630;28;1195;-63
2023/02/25 06:09:18;;;;;;;;;;;;;;;15.37;46.75;100059.66;4999836;28;1160;-59
2023/02/25 06:11:43;;;;;;;;;;;;;;;16.13;45.02;100053.97;4999491;28;1116;-54
2023/02/25 06:14:09;;;;;;;;;;;;;;;17.43;41.90;100054.09;5014885;28;1044;-61
2023/02/25 06:16:34;;;;;;;;;;;;;;;16.79;42.90;100059.03;4999376;28;1970;-61
2023/02/25 06:18:59;;;;;;;;;;;;;;;15.97;44.85;100061.47;5014229;28;1289;-56
2023/02/25 06:21:25;;;;;;;;;;;;;;;15.89;45.37;100053.88;5000059;28;1100;-55
2023/02/25 06:23:50;;;;;;;;;;;;;;;16.21;44.47;100055.25;4999562;28;1156;-53
2023/02/25 06:26:16;;;;;;;;;;;;;;;16.80;43.44;100057.94;5000489;28;1203;-52
2023/02/25 06:28:42;;;;;;;;;;;;;;;18.00;40.56;100062.34;4999801;28;1064;-53
2023/02/25 06:31:08;;;;;;;;;;;;;;;16.37;44.42;100062.22;4999249;28;1005;-55
2023/02/25 06:33:34;;;;;;;;;;;;;;;15.93;44.99;100059.59;4999112;28;1131;-55
2023/02/25 06:36:00;;;;;;;;;;;;;;;16.92;42.91;100053.69;4985387;28;1906;-56
2023/02/25 06:38:25;;;;;;;;;;;;;;;16.06;45.01;100048.78;4999811;28;1052;-60
2023/02/25 06:40:51;;;;;;;;;;;;;;;17.89;41.11;100042.44;4998567;28;1087;-55
2023/02/25 06:43:16;;;;;;;;;;;;;;;16.98;42.75;100053.63;4998591;28;1145;-58
2023/02/25 06:45:42;;;;;;;;;;;;;;;16.26;44.64;100060.69;4999383;28;1104;-55
2023/02/25 06:48:07;;;;;;;;;;;;;;;15.99;44.86;100070.25;4999078;28;1053;-56
2023/02/25 06:50:34;;;;;;;;;;;;;;;17.61;41.67;100057.97;4999743;28;1145;-55
2023/02/25 06:52:59;;;;;;;;;;;;;;;16.43;44.21;100061.06;4998602;28;1085;-52
2023/02/25 06:55:25;;;;;;;;;;;;;;;17.92;41.14;100060.28;4998891;28;894;-56
2023/02/25 06:57:50;;;;;;;;;;;;;;;17.36;42.07;100060.00;4999145;28;1914;-56
2023/02/25 07:00:16;;;;;;;;;;;;;;;16.51;43.92;100051.38;4981942;28;1045;-59
2023/02/25 07:02:41;;;;;;;;;;;;;;;17.52;42.26;100054.28;4998864;28;1541;-57
2023/02/25 07:05:07;;;;;;;;;;;;;;;16.49;43.91;100063.75;4998825;28;1415;-55
2023/02/25 07:07:32;;;;;;;;;;;;;;;18.21;40.64;100070.25;4998799;28;901;-58
2023/02/25 07:09:58;;;;;;;;;;;;;;;17.91;41.13;100069.66;4998814;28;1171;-56
2023/02/25 07:12:23;;;;;;;;;;;;;;;16.84;43.21;100068.03;4999121;28;1054;-57
2023/02/25 07:14:48;;;;;;;;;;;;;;;16.51;43.90;100075.25;5000801;28;1144;-58
2023/02/25 07:17:14;;;;;;;;;;;;;;;17.08;42.93;100072.72;5012245;28;1906;-56
2023/02/25 07:19:39;;;;;;;;;;;;;;;16.45;43.97;100077.22;4998317;28;1041;-59
2023/02/25 07:22:05;;;;;;;;;;;;;;;17.47;42.32;100065.34;4998746;28;1089;-58
2023/02/25 07:24:30;;;;;;;;;;;;;;;16.74;43.68;100068.16;4998505;28;1025;-58
2023/02/25 07:26:56;;;;;;;;;;;;;;;16.72;43.84;100068.44;4998764;28;1072;-56
2023/02/25 07:29:21;;;;;;;;;;;;;;;17.76;41.34;100057.75;4998392;28;1111;-57
2023/02/25 07:31:47;;;;;;;;;;;;;;;16.64;43.79;100060.84;4997922;28;1331;-56
2023/02/25 07:34:13;;;;;;;;;;;;;;;16.20;44.43;100056.34;5002701;28;1223;-56
2023/02/25 07:36:39;;;;;;;;;;;;;;;17.06;43.18;100051.03;5001599;28;1906;-52
2023/02/25 07:39:05;;;;;;;;;;;;;;;16.59;43.95;100044.44;5001590;28;1414;-55
2023/02/25 07:41:31;;;;;;;;;;;;;;;16.24;44.30;100049.16;4998157;28;1006;-55
2023/02/25 07:44:01;;;;;;;;;;;;;;;16.00;44.59;100052.66;4981307;28;1346;-54
2023/02/25 07:46:26;;;;;;;;;;;;;;;17.19;42.86;100046.75;5005318;28;1354;-56
2023/02/25 07:48:52;;;;;;;;;;;;;;;16.25;44.68;100050.81;5003509;28;1223;-57
2023/02/25 07:51:18;;;;;;;;;;;;;;;17.73;41.85;100050.09;4997090;28;1040;-59
2023/02/25 07:53:47;;;;;;;;;;;;;;;17.36;42.45;100048.16;4997746;28;1213;-58
2023/02/25 07:56:12;;;;;;;;;;;;;;;16.52;44.15;100046.69;5000208;28;1979;-57
2023/02/25 07:58:38;;;;;;;;;;;;;;;17.47;42.37;100051.59;5006888;28;1274;-58
2023/02/25 08:01:26;;;;;;;;;;;;;;;16.56;44.08;100054.09;5008300;28;1203;-57
2023/02/25 08:03:53;;;;;;;;;;;;;;;18.06;40.98;100047.41;4997443;28;1756;-55
2023/02/25 08:06:19;;;;;;;;;;;;;;;17.54;41.87;100043.78;5001552;28;1255;-60
2023/02/25 08:08:45;;;;;;;;;;;;;;;16.74;43.76;100048.94;4997488;28;1490;-58
2023/02/25 08:11:11;;;;;;;;;;;;;;;16.43;44.33;100044.59;4998032;28;1024;-58
2023/02/25 08:13:37;;;;;;;;;;;;;;;17.81;41.60;100034.03;4997338;28;1050;-55
2023/02/25 08:16:03;;;;;;;;;;;;;;;16.77;43.62;100035.44;5012595;28;1910;-57
2023/02/25 08:18:28;;;;;;;;;;;;;;;18.10;41.03;100026.44;4997588;28;1036;-58
2023/02/25 08:20:54;;;;;;;;;;;;;;;17.65;42.00;100037.03;4997458;28;1116;-56
2023/02/25 08:23:20;;;;;;;;;;;;;;;16.85;43.65;100035.91;4997769;28;1124;-55
2023/02/25 08:25:45;;;;;;;;;;;;;;;16.53;44.29;100024.44;4997575;28;1100;-55
2023/02/25 08:28:11;;;;;;;;;;;;;;;16.65;43.79;100020.47;4997145;28;1092;-59
2023/02/25 08:30:36;;;;;;;;;;;;;;;16.25;44.50;100013.22;4997439;28;1065;-56
2023/02/25 08:33:02;;;;;;;;;;;;;;;17.67;42.62;100022.97;4997292;28;1152;-59
2023/02/25 08:35:27;;;;;;;;;;;;;;;16.72;44.23;100016.28;4997311;28;1108;-59
2023/02/25 08:37:53;;;;;;;;;;;;;;;16.40;44.80;100004.03;4997060;28;1910;-61
2023/02/25 08:40:18;;;;;;;;;;;;;;;16.97;44.06;99986.91;4997347;28;1145;-59
2023/02/25 08:42:44;;;;;;;;;;;;;;;16.68;44.45;99982.28;4996749;28;1049;-59
2023/02/25 08:45:09;;;;;;;;;;;;;;;16.31;44.70;99983.81;4996871;28;1132;-56
2023/02/25 08:47:35;;;;;;;;;;;;;;;17.41;42.77;99982.97;5012111;28;1482;-58
2023/02/25 08:50:01;;;;;;;;;;;;;;;16.49;44.75;99987.72;4996646;28;1255;-55
2023/02/25 08:52:32;;;;;;;;;;;;;;;17.49;42.96;99978.72;4997094;28;1053;-58
2023/02/25 08:54:59;;;;;;;;;;;;;;;16.99;43.57;99968.19;4996928;28;1128;-59
2023/02/25 08:57:25;;;;;;;;;;;;;;;16.49;44.50;99965.78;4996340;28;1978;-59
2023/02/25 08:59:50;;;;;;;;;;;;;;;16.58;44.55;99960.47;4997004;28;1029;-57
2023/02/25 09:02:16;;;;;;;;;;;;;;;16.87;43.99;99959.53;4996829;28;1100;-55
2023/02/25 09:04:41;;;;;;;;;;;;;;;17.10;43.78;99938.66;4996196;28;1013;-60
2023/02/25 09:07:07;;;;;;;;;;;;;;;18.67;40.24;99951.00;5001593;28;1056;-60
2023/02/25 09:09:33;;;;;;;;;;;;;;;17.06;43.60;99943.91;4996892;28;1033;-58
2023/02/25 09:11:58;;;;;;;;;;;;;;;16.58;44.37;99946.75;4996561;28;1016;-57
2023/02/25 09:14:24;;;;;;;;;;;;;;;16.39;44.50;99931.03;4996905;28;1188;-59
2023/02/25 09:16:49;;;;;;;;;;;;;;;16.43;44.49;99923.84;4996661;28;1971;-56
2023/02/25 09:19:16;;;;;;;;;;;;;;;17.02;43.80;99917.34;4996333;28;1136;-58
2023/02/25 09:21:42;;;;;;;;;;;;;;;16.43;44.71;99904.66;4996268;28;1072;-57
2023/02/25 09:24:08;;;;;;;;;;;;;;;16.31;44.53;99887.78;4996673;28;1021;-57
2023/02/25 09:26:33;;;;;;;;;;;;;;;16.90;43.85;99890.31;4996785;28;1149;-57
2023/02/25 09:29:08;;;;;;;;;;;;;;;16.23;44.93;99888.47;4996046;28;1136;-57
2023/02/25 09:31:35;;;;;;;;;;;;;;;16.25;45.16;99908.97;4998925;28;1136;-58
2023/02/25 09:34:03;;;;;;;;;;;;;;;17.00;43.67;99908.56;5004918;28;1259;-57
2023/02/25 09:36:28;;;;;;;;;;;;;;;17.24;43.49;99894.75;5004014;28;1914;-58
2023/02/25 09:38:55;;;;;;;;;;;;;;;18.82;39.92;99892.03;4999258;28;1194;-58
2023/02/25 09:41:29;;;;;;;;;;;;;;;17.29;42.98;99886.41;4996563;28;1063;-60
2023/02/25 09:43:59;;;;;;;;;;;;;;;16.73;44.27;99885.31;5010929;28;1147;-56
2023/02/25 09:46:25;;;;;;;;;;;;;;;16.39;44.80;99880.84;4999056;28;1136;-60
2023/02/25 09:48:54;;;;;;;;;;;;;;;16.23;44.74;99869.25;5002487;28;1286;-57
2023/02/25 09:51:21;;;;;;;;;;;;;;;16.99;43.73;99866.56;4985545;28;1514;-59
2023/02/25 09:54:06;;;;;;;;;;;;;;;16.46;44.53;99861.28;5002627;28;1148;-59
2023/02/25 09:56:31;;;;;;;;;;;;;;;17.16;43.67;99865.22;4989706;28;1906;-57
2023/02/25 09:58:57;;;;;;;;;;;;;;;16.90;43.79;99849.13;5005652;28;1153;-61
2023/02/25 10:01:37;;;;;;;;;;;;;;;16.42;44.73;99839.94;5002692;28;1363;-60
2023/02/25 10:04:12;;;;;;;;;;;;;;;16.15;44.87;99837.00;5005725;28;1129;-58
2023/02/25 10:06:39;;;;;;;;;;;;;;;17.21;43.38;99818.44;5020260;28;1211;-59
2023/02/25 10:09:08;;;;;;;;;;;;;;;16.76;44.30;99825.16;5005688;28;1247;-59
2023/02/25 10:11:56;;;;;;;;;;;;;;;17.39;43.16;99820.31;5002520;28;1418;-56
2023/02/25 10:14:27;;;;;;;;;;;;;;;17.75;41.89;99816.91;4988249;28;1224;-56
2023/02/25 10:17:04;;;;;;;;;;;;;;;16.73;44.43;99819.44;5021498;28;1965;-60
2023/02/25 10:19:35;;;;;;;;;;;;;;;17.47;42.90;99813.28;5006642;28;1303;-55
2023/02/25 10:22:19;;;;;;;;;;;;;;;16.84;44.35;99814.63;5021737;28;1100;-61
2023/02/25 10:24:56;;;;;;;;;;;;;;;16.45;44.80;99793.78;5006766;28;1149;-61
2023/02/25 10:27:27;;;;;;;;;;;;;;;17.62;42.94;99790.22;4991196;28;1200;-60
2023/02/25 10:29:55;;;;;;;;;;;;;;;16.78;44.08;99780.94;4999231;28;1000;-58
2023/02/25 10:32:22;;;;;;;;;;;;;;;16.56;44.70;99770.56;4998977;28;1124;-61
2023/02/25 10:34:48;;;;;;;;;;;;;;;17.40;43.00;99766.16;4999245;28;985;-56
2023/02/25 10:37:16;;;;;;;;;;;;;;;16.69;44.25;99764.34;4999129;28;1964;-62
2023/02/25 10:39:41;;;;;;;;;;;;;;;16.43;44.51;99774.88;5014343;28;1511;-60
2023/02/25 10:42:08;;;;;;;;;;;;;;;17.08;43.87;99776.91;5014096;28;1133;-54
2023/02/25 10:44:34;;;;;;;;;;;;;;;16.82;44.44;99761.94;4998800;28;1325;-58
2023/02/25 10:47:00;;;;;;;;;;;;;;;16.37;45.08;99757.69;4999646;28;1211;-61
2023/02/25 10:49:27;;;;;;;;;;;;;;;17.51;43.07;99755.78;5014177;28;1017;-57
2023/02/25 10:52:01;;;;;;;;;;;;;;;16.62;44.77;99765.81;5014190;28;1171;-57
2023/02/25 10:54:28;;;;;;;;;;;;;;;16.45;44.93;99750.69;4999161;28;1217;-57
2023/02/25 10:56:53;;;;;;;;;;;;;;;17.07;44.02;99753.28;4998744;28;1968;-57
2023/02/25 10:59:45;;;;;;;;;;;;;;;16.41;44.89;99742.25;4999209;28;1091;-57
2023/02/25 11:02:27;;;;;;;;;;;;;;;17.61;42.98;99750.09;4997448;28;1627;-57
2023/02/25 11:04:52;;;;;;;;;;;;;;;16.53;44.91;99746.47;5014076;28;1262;-57
2023/02/25 11:07:29;;;;;;;;;;;;;;;16.31;45.31;99747.88;4998540;28;1231;-60
2023/02/25 11:10:22;;;;;;;;;;;;;;;16.49;44.87;99746.25;4998348;28;856;-61
2023/02/25 11:12:55;;;;;;;;;;;;;;;16.75;44.63;99740.34;4987927;28;2244;-59
2023/02/25 11:15:28;;;;;;;;;;;;;;;16.31;45.08;99747.88;4999117;28;1108;-57
2023/02/25 11:17:54;;;;;;;;;;;;;;;16.78;44.68;99742.50;5001175;28;1934;-60
2023/02/25 11:20:20;;;;;;;;;;;;;;;16.73;44.57;99731.59;5001408;28;1189;-59
2023/02/25 11:22:45;;;;;;;;;;;;;;;16.42;45.10;99724.69;5013542;28;1073;-57
2023/02/25 11:25:34;;;;;;;;;;;;;;;16.58;45.21;99707.97;4998727;28;1199;-58
2023/02/25 11:27:59;;;;;;;;;;;;;;;16.59;45.06;99698.59;4983425;28;1230;-56
2023/02/25 11:30:36;;;;;;;;;;;;;;;16.34;45.07;99686.94;5013241;28;1044;-60
2023/02/25 11:33:02;;;;;;;;;;;;;;;17.39;43.34;99702.16;4997724;28;1136;-56
2023/02/25 11:35:29;;;;;;;;;;;;;;;16.57;45.10;99695.34;5002325;28;1334;-56
2023/02/25 11:37:56;;;;;;;;;;;;;;;17.56;43.37;99695.22;4997541;28;1897;-57
2023/02/25 11:40:29;;;;;;;;;;;;;;;16.97;44.37;99694.97;4998452;28;1100;-51
2023/02/25 11:43:03;;;;;;;;;;;;;;;16.52;44.80;99698.19;4998685;28;1396;-61
2023/02/25 11:45:29;;;;;;;;;;;;;;;16.22;45.30;99690.13;5001782;28;1161;-57
2023/02/25 11:47:55;;;;;;;;;;;;;;;17.03;44.29;99702.81;5019564;28;1408;-62
2023/02/25 11:50:38;;;;;;;;;;;;;;;16.99;44.16;99696.31;5007087;28;1203;-58
2023/02/25 11:53:26;;;;;;;;;;;;;;;16.39;45.32;99689.59;4980428;28;1471;-57
2023/02/25 11:55:58;;;;;;;;;;;;;;;17.72;43.00;99680.03;4985858;28;1910;-59
2023/02/25 11:58:29;;;;;;;;;;;;;;;16.59;45.12;99688.47;4997339;28;973;-58
2023/02/25 12:01:13;;;;;;;;;;;;;;;16.35;45.37;99677.56;4997770;28;1072;-57
2023/02/25 12:03:51;;;;;;;;;;;;;;;16.81;44.79;99688.94;4997227;28;1052;-52
2023/02/25 12:06:25;;;;;;;;;;;;;;;16.42;45.25;99691.75;4998155;28;1148;-45
2023/02/25 12:08:56;;;;;;;;;;;;;;;17.60;42.97;99690.75;5002862;28;938;-54
2023/02/25 12:11:28;;;;;;;;;;;;;;;16.55;45.07;99673.72;4997637;28;1104;-51
2023/02/25 12:14:01;;;;;;;;;;;;;;;16.52;45.40;99682.53;4997966;28;1092;-52
2023/02/25 12:16:47;;;;;;;;;;;;;;;16.99;44.09;99685.31;5012330;28;1910;-53
2023/02/25 12:19:24;;;;;;;;;;;;;;;16.37;45.21;99691.03;5012336;28;1437;-46
2023/02/25 12:22:11;;;;;;;;;;;;;;;17.58;43.04;99684.72;4997077;28;919;-54
2023/02/25 12:24:56;;;;;;;;;;;;;;;16.65;44.79;99680.94;4996963;28;1187;-53
2023/02/25 12:27:24;;;;;;;;;;;;;;;16.40;45.61;99674.75;4997450;28;1179;-52
2023/02/25 12:29:53;;;;;;;;;;;;;;;16.91;44.27;99669.53;4997277;28;1204;-48
2023/02/25 12:32:35;;;;;;;;;;;;;;;16.46;45.19;99669.22;4996698;28;1017;-52
2023/02/25 12:35:17;;;;;;;;;;;;;;;16.24;45.07;99659.66;5012297;28;1143;-51
2023/02/25 12:37:47;;;;;;;;;;;;;;;17.08;44.11;99672.53;4984921;28;2016;-53
2023/02/25 12:40:23;;;;;;;;;;;;;;;16.45;45.30;99657.41;5011926;28;1171;-51
2023/02/25 12:42:49;;;;;;;;;;;;;;;16.16;45.22;99655.69;5012766;28;1115;-54
2023/02/25 12:45:24;;;;;;;;;;;;;;;16.06;45.32;99650.34;4996482;28;1180;-50
2023/02/25 12:48:08;;;;;;;;;;;;;;;17.02;44.21;99654.50;4996507;28;1048;-49
2023/02/25 12:50:49;;;;;;;;;;;;;;;16.39;45.19;99645.69;4986541;28;993;-46
2023/02/25 12:53:23;;;;;;;;;;;;;;;16.18;45.17;99636.19;4997381;28;1119;-46
2023/02/25 12:56:21;;;;;;;;;;;;;;;17.05;44.22;99636.59;4996675;28;1072;-49